sensor_id;sensor_type;location;lat;lon;timestamp;P1;durP1;ratioP1;P2;durP2;ratioP2
42018;SDS011;27703;51.980;5.848;2023-05-07T00:01:13;3.83;;;1.73;;
42018;SDS011;27703;51.980;5.848;2023-05-07T00:03:38;4.72;;;1.58;;
42018;SDS011;27703;51.980;5.848;2023-05-07T00:06:04;2.47;;;1.55;;
42018;SDS011;27703;51.980;5.848;2023-05-07T00:08:30;1.92;;;1.40;;
42018;SDS011;27703;51.980;5.848;2023-05-07T00:10:55;3.28;;;1.77;;
42018;SDS011;27703;51.980;5.848;2023-05-07T00:13:21;2.70;;;1.50;;
42018;SDS011;27703;51.980;5.848;2023-05-07T00:15:46;3.15;;;2.17;;
42018;SDS011;27703;51.980;5.848;2023-05-07T00:18:12;2.53;;;1.73;;
42018;SDS011;27703;51.980;5.848;2023-05-07T00:20:37;3.50;;;1.60;;
42018;SDS011;27703;51.980;5.848;2023-05-07T00:23:03;2.97;;;1.98;;
42018;SDS011;27703;51.980;5.848;2023-05-07T00:25:28;2.92;;;1.95;;
42018;SDS011;27703;51.980;5.848;2023-05-07T00:27:54;1.90;;;1.67;;
42018;SDS011;27703;51.980;5.848;2023-05-07T00:30:20;3.25;;;2.15;;
42018;SDS011;27703;51.980;5.848;2023-05-07T00:32:45;3.38;;;2.30;;
42018;SDS011;27703;51.980;5.848;2023-05-07T00:35:11;2.67;;;2.10;;
42018;SDS011;27703;51.980;5.848;2023-05-07T00:37:37;3.13;;;2.40;;
42018;SDS011;27703;51.980;5.848;2023-05-07T00:40:02;3.65;;;2.30;;
42018;SDS011;27703;51.980;5.848;2023-05-07T00:42:32;3.17;;;2.65;;
42018;SDS011;27703;51.980;5.848;2023-05-07T00:44:57;3.55;;;2.35;;
42018;SDS011;27703;51.980;5.848;2023-05-07T00:47:23;3.63;;;2.40;;
42018;SDS011;27703;51.980;5.848;2023-05-07T00:49:50;3.13;;;2.53;;
42018;SDS011;27703;51.980;5.848;2023-05-07T00:52:16;3.05;;;2.65;;
42018;SDS011;27703;51.980;5.848;2023-05-07T00:54:44;4.47;;;3.17;;
42018;SDS011;27703;51.980;5.848;2023-05-07T00:57:10;4.70;;;2.38;;
42018;SDS011;27703;51.980;5.848;2023-05-07T00:59:36;3.35;;;2.75;;
42018;SDS011;27703;51.980;5.848;2023-05-07T01:02:02;5.22;;;2.97;;
42018;SDS011;27703;51.980;5.848;2023-05-07T01:04:27;3.15;;;2.25;;
42018;SDS011;27703;51.980;5.848;2023-05-07T01:06:56;3.15;;;2.53;;
42018;SDS011;27703;51.980;5.848;2023-05-07T01:09:24;2.75;;;2.45;;
42018;SDS011;27703;51.980;5.848;2023-05-07T01:11:50;3.40;;;2.97;;
42018;SDS011;27703;51.980;5.848;2023-05-07T01:14:17;4.88;;;2.97;;
42018;SDS011;27703;51.980;5.848;2023-05-07T01:16:44;3.47;;;2.78;;
42018;SDS011;27703;51.980;5.848;2023-05-07T01:19:09;3.67;;;2.90;;
42018;SDS011;27703;51.980;5.848;2023-05-07T01:21:38;3.58;;;3.13;;
42018;SDS011;27703;51.980;5.848;2023-05-07T01:24:09;4.78;;;3.30;;
42018;SDS011;27703;51.980;5.848;2023-05-07T01:26:36;3.78;;;3.40;;
42018;SDS011;27703;51.980;5.848;2023-05-07T01:29:02;4.22;;;3.75;;
42018;SDS011;27703;51.980;5.848;2023-05-07T01:31:28;7.93;;;3.60;;
42018;SDS011;27703;51.980;5.848;2023-05-07T01:33:54;4.93;;;4.35;;
42018;SDS011;27703;51.980;5.848;2023-05-07T01:36:21;4.47;;;3.53;;
42018;SDS011;27703;51.980;5.848;2023-05-07T01:38:50;4.60;;;3.83;;
42018;SDS011;27703;51.980;5.848;2023-05-07T01:41:17;4.47;;;4.07;;
42018;SDS011;27703;51.980;5.848;2023-05-07T01:43:43;4.72;;;3.78;;
42018;SDS011;27703;51.980;5.848;2023-05-07T01:46:09;5.35;;;4.15;;
42018;SDS011;27703;51.980;5.848;2023-05-07T01:48:35;9.13;;;4.50;;
42018;SDS011;27703;51.980;5.848;2023-05-07T01:51:02;4.63;;;4.22;;
42018;SDS011;27703;51.980;5.848;2023-05-07T01:53:30;6.75;;;5.30;;
42018;SDS011;27703;51.980;5.848;2023-05-07T01:56:01;5.28;;;4.78;;
42018;SDS011;27703;51.980;5.848;2023-05-07T01:58:27;5.13;;;4.70;;
42018;SDS011;27703;51.980;5.848;2023-05-07T02:00:52;5.47;;;4.97;;
42018;SDS011;27703;51.980;5.848;2023-05-07T02:03:18;6.47;;;5.57;;
42018;SDS011;27703;51.980;5.848;2023-05-07T02:05:43;5.38;;;4.85;;
42018;SDS011;27703;51.980;5.848;2023-05-07T02:08:09;5.90;;;4.90;;
42018;SDS011;27703;51.980;5.848;2023-05-07T02:10:34;5.82;;;5.22;;
42018;SDS011;27703;51.980;5.848;2023-05-07T02:13:01;5.47;;;4.97;;
42018;SDS011;27703;51.980;5.848;2023-05-07T02:15:27;5.10;;;4.70;;
42018;SDS011;27703;51.980;5.848;2023-05-07T02:18:02;5.45;;;5.05;;
42018;SDS011;27703;51.980;5.848;2023-05-07T02:20:29;5.95;;;5.43;;
42018;SDS011;27703;51.980;5.848;2023-05-07T02:22:55;6.63;;;6.03;;
42018;SDS011;27703;51.980;5.848;2023-05-07T02:25:21;6.22;;;5.63;;
42018;SDS011;27703;51.980;5.848;2023-05-07T02:27:46;6.20;;;5.63;;
42018;SDS011;27703;51.980;5.848;2023-05-07T02:30:12;5.60;;;5.10;;
42018;SDS011;27703;51.980;5.848;2023-05-07T02:32:38;5.93;;;5.43;;
42018;SDS011;27703;51.980;5.848;2023-05-07T02:35:04;6.65;;;5.93;;
42018;SDS011;27703;51.980;5.848;2023-05-07T02:37:30;7.85;;;6.35;;
42018;SDS011;27703;51.980;5.848;2023-05-07T02:39:56;5.72;;;5.20;;
42018;SDS011;27703;51.980;5.848;2023-05-07T02:42:21;6.68;;;5.85;;
42018;SDS011;27703;51.980;5.848;2023-05-07T02:44:47;6.78;;;5.80;;
42018;SDS011;27703;51.980;5.848;2023-05-07T02:47:13;5.88;;;5.28;;
42018;SDS011;27703;51.980;5.848;2023-05-07T02:49:40;6.10;;;5.60;;
42018;SDS011;27703;51.980;5.848;2023-05-07T02:52:06;7.68;;;6.35;;
42018;SDS011;27703;51.980;5.848;2023-05-07T02:54:32;6.53;;;5.93;;
42018;SDS011;27703;51.980;5.848;2023-05-07T02:56:57;7.00;;;5.82;;
42018;SDS011;27703;51.980;5.848;2023-05-07T02:59:23;6.28;;;5.65;;
42018;SDS011;27703;51.980;5.848;2023-05-07T03:01:49;6.97;;;6.15;;
42018;SDS011;27703;51.980;5.848;2023-05-07T03:04:15;6.68;;;6.07;;
42018;SDS011;27703;51.980;5.848;2023-05-07T03:06:41;6.85;;;5.30;;
42018;SDS011;27703;51.980;5.848;2023-05-07T03:09:06;6.63;;;5.47;;
42018;SDS011;27703;51.980;5.848;2023-05-07T03:11:32;6.45;;;5.68;;
42018;SDS011;27703;51.980;5.848;2023-05-07T03:13:57;5.68;;;5.18;;
42018;SDS011;27703;51.980;5.848;2023-05-07T03:16:23;6.15;;;5.57;;
42018;SDS011;27703;51.980;5.848;2023-05-07T03:18:48;8.23;;;6.10;;
42018;SDS011;27703;51.980;5.848;2023-05-07T03:21:14;8.13;;;6.25;;
42018;SDS011;27703;51.980;5.848;2023-05-07T03:23:40;7.10;;;6.40;;
42018;SDS011;27703;51.980;5.848;2023-05-07T03:26:05;6.95;;;6.35;;
42018;SDS011;27703;51.980;5.848;2023-05-07T03:28:31;7.85;;;5.38;;
42018;SDS011;27703;51.980;5.848;2023-05-07T03:30:56;6.85;;;5.80;;
42018;SDS011;27703;51.980;5.848;2023-05-07T03:33:22;5.88;;;5.30;;
42018;SDS011;27703;51.980;5.848;2023-05-07T03:35:47;6.38;;;5.75;;
42018;SDS011;27703;51.980;5.848;2023-05-07T03:38:13;6.43;;;5.72;;
42018;SDS011;27703;51.980;5.848;2023-05-07T03:40:38;6.22;;;5.53;;
42018;SDS011;27703;51.980;5.848;2023-05-07T03:43:04;8.07;;;6.65;;
42018;SDS011;27703;51.980;5.848;2023-05-07T03:45:30;7.82;;;6.10;;
42018;SDS011;27703;51.980;5.848;2023-05-07T03:47:55;6.85;;;6.13;;
42018;SDS011;27703;51.980;5.848;2023-05-07T03:50:21;9.98;;;5.88;;
42018;SDS011;27703;51.980;5.848;2023-05-07T03:52:46;5.80;;;5.28;;
42018;SDS011;27703;51.980;5.848;2023-05-07T03:55:12;5.32;;;4.93;;
42018;SDS011;27703;51.980;5.848;2023-05-07T03:57:37;6.78;;;6.03;;
42018;SDS011;27703;51.980;5.848;2023-05-07T04:00:03;8.00;;;5.70;;
42018;SDS011;27703;51.980;5.848;2023-05-07T04:02:30;6.47;;;5.30;;
42018;SDS011;27703;51.980;5.848;2023-05-07T04:04:56;6.38;;;5.70;;
42018;SDS011;27703;51.980;5.848;2023-05-07T04:07:21;5.55;;;5.05;;
42018;SDS011;27703;51.980;5.848;2023-05-07T04:09:47;6.10;;;5.55;;
42018;SDS011;27703;51.980;5.848;2023-05-07T04:12:13;6.28;;;5.68;;
42018;SDS011;27703;51.980;5.848;2023-05-07T04:14:38;6.68;;;6.07;;
42018;SDS011;27703;51.980;5.848;2023-05-07T04:17:04;7.57;;;6.47;;
42018;SDS011;27703;51.980;5.848;2023-05-07T04:19:30;7.25;;;6.55;;
42018;SDS011;27703;51.980;5.848;2023-05-07T04:21:58;7.18;;;6.47;;
42018;SDS011;27703;51.980;5.848;2023-05-07T04:24:23;7.22;;;6.53;;
42018;SDS011;27703;51.980;5.848;2023-05-07T04:26:49;7.10;;;6.40;;
42018;SDS011;27703;51.980;5.848;2023-05-07T04:29:16;6.72;;;6.13;;
42018;SDS011;27703;51.980;5.848;2023-05-07T04:31:42;6.85;;;6.20;;
42018;SDS011;27703;51.980;5.848;2023-05-07T04:34:09;6.43;;;5.93;;
42018;SDS011;27703;51.980;5.848;2023-05-07T04:36:35;7.93;;;7.07;;
42018;SDS011;27703;51.980;5.848;2023-05-07T04:39:02;7.85;;;6.95;;
42018;SDS011;27703;51.980;5.848;2023-05-07T04:41:28;6.95;;;6.35;;
42018;SDS011;27703;51.980;5.848;2023-05-07T04:43:53;7.32;;;6.72;;
42018;SDS011;27703;51.980;5.848;2023-05-07T04:46:19;8.18;;;7.38;;
42018;SDS011;27703;51.980;5.848;2023-05-07T04:48:45;7.78;;;7.05;;
42018;SDS011;27703;51.980;5.848;2023-05-07T04:51:10;7.53;;;6.85;;
42018;SDS011;27703;51.980;5.848;2023-05-07T04:53:36;7.13;;;6.45;;
42018;SDS011;27703;51.980;5.848;2023-05-07T04:56:02;7.95;;;7.10;;
42018;SDS011;27703;51.980;5.848;2023-05-07T04:58:28;7.60;;;7.00;;
42018;SDS011;27703;51.980;5.848;2023-05-07T05:00:56;8.07;;;7.28;;
42018;SDS011;27703;51.980;5.848;2023-05-07T05:03:22;7.55;;;6.85;;
42018;SDS011;27703;51.980;5.848;2023-05-07T05:05:51;11.10;;;9.15;;
42018;SDS011;27703;51.980;5.848;2023-05-07T05:08:17;8.10;;;7.30;;
42018;SDS011;27703;51.980;5.848;2023-05-07T05:10:43;8.23;;;7.53;;
42018;SDS011;27703;51.980;5.848;2023-05-07T05:13:09;9.82;;;8.25;;
42018;SDS011;27703;51.980;5.848;2023-05-07T05:15:37;7.45;;;6.75;;
42018;SDS011;27703;51.980;5.848;2023-05-07T05:18:03;8.60;;;7.80;;
42018;SDS011;27703;51.980;5.848;2023-05-07T05:20:29;8.55;;;7.60;;
42018;SDS011;27703;51.980;5.848;2023-05-07T05:22:55;8.20;;;7.40;;
42018;SDS011;27703;51.980;5.848;2023-05-07T05:25:20;8.05;;;7.35;;
42018;SDS011;27703;51.980;5.848;2023-05-07T05:27:46;8.38;;;7.55;;
42018;SDS011;27703;51.980;5.848;2023-05-07T05:30:11;7.50;;;6.45;;
42018;SDS011;27703;51.980;5.848;2023-05-07T05:32:37;7.75;;;7.05;;
42018;SDS011;27703;51.980;5.848;2023-05-07T05:35:03;7.72;;;6.70;;
42018;SDS011;27703;51.980;5.848;2023-05-07T05:37:29;8.90;;;8.00;;
42018;SDS011;27703;51.980;5.848;2023-05-07T05:39:56;9.05;;;8.27;;
42018;SDS011;27703;51.980;5.848;2023-05-07T05:42:21;8.55;;;7.85;;
42018;SDS011;27703;51.980;5.848;2023-05-07T05:44:47;8.65;;;7.53;;
42018;SDS011;27703;51.980;5.848;2023-05-07T05:47:13;8.55;;;7.85;;
42018;SDS011;27703;51.980;5.848;2023-05-07T05:49:38;8.77;;;7.97;;
42018;SDS011;27703;51.980;5.848;2023-05-07T05:52:04;7.80;;;7.10;;
42018;SDS011;27703;51.980;5.848;2023-05-07T05:54:30;8.20;;;7.50;;
42018;SDS011;27703;51.980;5.848;2023-05-07T05:56:55;7.57;;;6.88;;
42018;SDS011;27703;51.980;5.848;2023-05-07T05:59:21;7.93;;;7.00;;
42018;SDS011;27703;51.980;5.848;2023-05-07T06:01:47;9.48;;;8.02;;
42018;SDS011;27703;51.980;5.848;2023-05-07T06:04:14;7.25;;;6.55;;
42018;SDS011;27703;51.980;5.848;2023-05-07T06:06:39;7.95;;;7.20;;
42018;SDS011;27703;51.980;5.848;2023-05-07T06:09:05;8.05;;;7.30;;
42018;SDS011;27703;51.980;5.848;2023-05-07T06:11:31;8.13;;;7.43;;
42018;SDS011;27703;51.980;5.848;2023-05-07T06:13:57;7.50;;;6.85;;
42018;SDS011;27703;51.980;5.848;2023-05-07T06:16:24;6.88;;;6.28;;
42018;SDS011;27703;51.980;5.848;2023-05-07T06:18:49;8.48;;;7.60;;
42018;SDS011;27703;51.980;5.848;2023-05-07T06:21:15;9.38;;;8.07;;
42018;SDS011;27703;51.980;5.848;2023-05-07T06:23:40;7.75;;;7.05;;
42018;SDS011;27703;51.980;5.848;2023-05-07T06:26:06;6.95;;;6.35;;
42018;SDS011;27703;51.980;5.848;2023-05-07T06:28:32;7.95;;;7.30;;
42018;SDS011;27703;51.980;5.848;2023-05-07T06:36:04;9.73;;;7.03;;
42018;SDS011;27703;51.980;5.848;2023-05-07T06:38:30;6.10;;;5.60;;
42018;SDS011;27703;51.980;5.848;2023-05-07T06:40:55;7.93;;;6.97;;
42018;SDS011;27703;51.980;5.848;2023-05-07T06:43:22;9.77;;;8.85;;
42018;SDS011;27703;51.980;5.848;2023-05-07T06:45:47;7.22;;;6.53;;
42018;SDS011;27703;51.980;5.848;2023-05-07T06:48:13;6.35;;;5.85;;
42018;SDS011;27703;51.980;5.848;2023-05-07T06:50:38;7.75;;;7.05;;
42018;SDS011;27703;51.980;5.848;2023-05-07T06:53:04;7.63;;;6.93;;
42018;SDS011;27703;51.980;5.848;2023-05-07T06:55:30;8.35;;;7.55;;
42018;SDS011;27703;51.980;5.848;2023-05-07T06:57:55;7.88;;;7.07;;
42018;SDS011;27703;51.980;5.848;2023-05-07T07:00:23;8.85;;;7.80;;
42018;SDS011;27703;51.980;5.848;2023-05-07T07:02:48;7.60;;;6.90;;
42018;SDS011;27703;51.980;5.848;2023-05-07T07:05:14;6.68;;;6.07;;
42018;SDS011;27703;51.980;5.848;2023-05-07T07:07:39;10.65;;;7.90;;
42018;SDS011;27703;51.980;5.848;2023-05-07T07:10:05;7.95;;;7.28;;
42018;SDS011;27703;51.980;5.848;2023-05-07T07:12:31;8.95;;;8.13;;
42018;SDS011;27703;51.980;5.848;2023-05-07T07:14:57;9.48;;;8.60;;
42018;SDS011;27703;51.980;5.848;2023-05-07T07:17:22;9.30;;;8.50;;
42018;SDS011;27703;51.980;5.848;2023-05-07T07:19:48;9.73;;;8.93;;
42018;SDS011;27703;51.980;5.848;2023-05-07T07:22:13;9.13;;;8.32;;
42018;SDS011;27703;51.980;5.848;2023-05-07T07:24:39;9.15;;;8.35;;
42018;SDS011;27703;51.980;5.848;2023-05-07T07:27:05;9.80;;;8.90;;
42018;SDS011;27703;51.980;5.848;2023-05-07T07:29:30;13.18;;;10.95;;
42018;SDS011;27703;51.980;5.848;2023-05-07T07:31:56;11.43;;;10.25;;
42018;SDS011;27703;51.980;5.848;2023-05-07T07:34:21;11.38;;;10.18;;
42018;SDS011;27703;51.980;5.848;2023-05-07T07:36:47;11.45;;;9.43;;
42018;SDS011;27703;51.980;5.848;2023-05-07T07:39:12;10.55;;;9.48;;
42018;SDS011;27703;51.980;5.848;2023-05-07T07:41:38;10.45;;;9.45;;
42018;SDS011;27703;51.980;5.848;2023-05-07T07:44:04;10.88;;;9.88;;
42018;SDS011;27703;51.980;5.848;2023-05-07T07:46:32;11.40;;;10.30;;
42018;SDS011;27703;51.980;5.848;2023-05-07T07:48:58;12.93;;;11.50;;
42018;SDS011;27703;51.980;5.848;2023-05-07T07:51:24;12.57;;;11.48;;
42018;SDS011;27703;51.980;5.848;2023-05-07T07:53:51;12.73;;;11.52;;
42018;SDS011;27703;51.980;5.848;2023-05-07T07:56:17;12.95;;;11.75;;
42018;SDS011;27703;51.980;5.848;2023-05-07T07:58:42;11.63;;;10.50;;
42018;SDS011;27703;51.980;5.848;2023-05-07T08:01:08;11.38;;;10.27;;
42018;SDS011;27703;51.980;5.848;2023-05-07T08:03:33;12.70;;;11.07;;
42018;SDS011;27703;51.980;5.848;2023-05-07T08:05:59;12.63;;;10.32;;
42018;SDS011;27703;51.980;5.848;2023-05-07T08:08:24;12.07;;;10.55;;
42018;SDS011;27703;51.980;5.848;2023-05-07T08:10:50;10.45;;;9.45;;
42018;SDS011;27703;51.980;5.848;2023-05-07T08:13:17;11.75;;;10.65;;
42018;SDS011;27703;51.980;5.848;2023-05-07T08:15:42;12.75;;;11.32;;
42018;SDS011;27703;51.980;5.848;2023-05-07T08:18:08;10.95;;;9.85;;
42018;SDS011;27703;51.980;5.848;2023-05-07T08:20:34;10.13;;;9.02;;
42018;SDS011;27703;51.980;5.848;2023-05-07T08:23:04;11.50;;;10.35;;
42018;SDS011;27703;51.980;5.848;2023-05-07T08:25:32;10.80;;;9.70;;
42018;SDS011;27703;51.980;5.848;2023-05-07T08:28:01;9.90;;;8.95;;
42018;SDS011;27703;51.980;5.848;2023-05-07T08:30:28;11.15;;;9.88;;
42018;SDS011;27703;51.980;5.848;2023-05-07T08:32:53;11.68;;;10.27;;
42018;SDS011;27703;51.980;5.848;2023-05-07T08:35:19;11.65;;;9.63;;
42018;SDS011;27703;51.980;5.848;2023-05-07T08:37:45;11.75;;;10.55;;
42018;SDS011;27703;51.980;5.848;2023-05-07T08:40:10;10.48;;;9.40;;
42018;SDS011;27703;51.980;5.848;2023-05-07T08:42:36;11.82;;;10.60;;
42018;SDS011;27703;51.980;5.848;2023-05-07T08:45:02;10.80;;;9.70;;
42018;SDS011;27703;51.980;5.848;2023-05-07T08:47:39;11.90;;;9.00;;
42018;SDS011;27703;51.980;5.848;2023-05-07T08:50:08;10.05;;;7.97;;
42018;SDS011;27703;51.980;5.848;2023-05-07T08:52:34;9.55;;;8.40;;
42018;SDS011;27703;51.980;5.848;2023-05-07T08:55:01;8.43;;;7.68;;
42018;SDS011;27703;51.980;5.848;2023-05-07T08:57:27;11.43;;;9.48;;
42018;SDS011;27703;51.980;5.848;2023-05-07T08:59:53;11.32;;;8.90;;
42018;SDS011;27703;51.980;5.848;2023-05-07T09:02:19;9.27;;;8.30;;
42018;SDS011;27703;51.980;5.848;2023-05-07T09:04:45;8.95;;;8.05;;
42018;SDS011;27703;51.980;5.848;2023-05-07T09:07:10;9.57;;;8.75;;
42018;SDS011;27703;51.980;5.848;2023-05-07T09:09:36;9.90;;;8.90;;
42018;SDS011;27703;51.980;5.848;2023-05-07T09:12:02;10.63;;;9.30;;
42018;SDS011;27703;51.980;5.848;2023-05-07T09:14:28;9.80;;;8.48;;
42018;SDS011;27703;51.980;5.848;2023-05-07T09:16:55;10.00;;;7.88;;
42018;SDS011;27703;51.980;5.848;2023-05-07T09:19:24;11.30;;;8.25;;
42018;SDS011;27703;51.980;5.848;2023-05-07T09:21:58;11.18;;;8.13;;
42018;SDS011;27703;51.980;5.848;2023-05-07T09:24:27;10.45;;;9.35;;
42018;SDS011;27703;51.980;5.848;2023-05-07T09:26:57;11.88;;;9.40;;
42018;SDS011;27703;51.980;5.848;2023-05-07T09:29:23;9.70;;;8.70;;
42018;SDS011;27703;51.980;5.848;2023-05-07T09:31:48;9.77;;;8.77;;
42018;SDS011;27703;51.980;5.848;2023-05-07T09:34:14;9.80;;;8.82;;
42018;SDS011;27703;51.980;5.848;2023-05-07T09:36:39;11.35;;;9.05;;
42018;SDS011;27703;51.980;5.848;2023-05-07T09:39:05;9.25;;;8.45;;
42018;SDS011;27703;51.980;5.848;2023-05-07T09:41:30;11.13;;;8.52;;
42018;SDS011;27703;51.980;5.848;2023-05-07T09:43:57;10.05;;;8.02;;
42018;SDS011;27703;51.980;5.848;2023-05-07T09:46:25;9.38;;;8.48;;
42018;SDS011;27703;51.980;5.848;2023-05-07T09:48:55;9.80;;;8.90;;
42018;SDS011;27703;51.980;5.848;2023-05-07T09:53:54;8.82;;;7.95;;
42018;SDS011;27703;51.980;5.848;2023-05-07T09:56:21;12.38;;;9.93;;
42018;SDS011;27703;51.980;5.848;2023-05-07T09:58:48;9.55;;;8.35;;
42018;SDS011;27703;51.980;5.848;2023-05-07T10:01:16;9.73;;;8.52;;
42018;SDS011;27703;51.980;5.848;2023-05-07T10:03:44;10.15;;;8.93;;
42018;SDS011;27703;51.980;5.848;2023-05-07T10:06:10;10.50;;;9.18;;
42018;SDS011;27703;51.980;5.848;2023-05-07T10:08:38;10.23;;;9.10;;
42018;SDS011;27703;51.980;5.848;2023-05-07T10:11:04;8.68;;;7.78;;
42018;SDS011;27703;51.980;5.848;2023-05-07T10:13:31;8.10;;;7.38;;
42018;SDS011;27703;51.980;5.848;2023-05-07T10:16:01;8.82;;;7.97;;
42018;SDS011;27703;51.980;5.848;2023-05-07T10:18:29;8.40;;;7.60;;
42018;SDS011;27703;51.980;5.848;2023-05-07T10:21:01;8.55;;;7.75;;
42018;SDS011;27703;51.980;5.848;2023-05-07T10:23:31;7.88;;;7.18;;
42018;SDS011;27703;51.980;5.848;2023-05-07T10:25:58;8.10;;;7.20;;
42018;SDS011;27703;51.980;5.848;2023-05-07T10:28:27;8.27;;;7.40;;
42018;SDS011;27703;51.980;5.848;2023-05-07T10:31:02;9.15;;;8.25;;
42018;SDS011;27703;51.980;5.848;2023-05-07T10:33:30;9.55;;;7.53;;
42018;SDS011;27703;51.980;5.848;2023-05-07T10:35:58;8.70;;;7.90;;
42018;SDS011;27703;51.980;5.848;2023-05-07T10:38:26;8.35;;;7.28;;
42018;SDS011;27703;51.980;5.848;2023-05-07T10:40:53;7.38;;;6.68;;
42018;SDS011;27703;51.980;5.848;2023-05-07T10:43:18;6.68;;;6.10;;
42018;SDS011;27703;51.980;5.848;2023-05-07T10:45:49;7.07;;;6.47;;
42018;SDS011;27703;51.980;5.848;2023-05-07T10:51:31;7.63;;;6.88;;
42018;SDS011;27703;51.980;5.848;2023-05-07T10:56:35;7.90;;;7.10;;
42018;SDS011;27703;51.980;5.848;2023-05-07T11:04:22;8.10;;;7.15;;
42018;SDS011;27703;51.980;5.848;2023-05-07T11:15:07;7.97;;;6.30;;
42018;SDS011;27703;51.980;5.848;2023-05-07T11:17:52;8.85;;;6.65;;
42018;SDS011;27703;51.980;5.848;2023-05-07T11:20:19;6.35;;;5.75;;
42018;SDS011;27703;51.980;5.848;2023-05-07T11:22:45;6.43;;;5.82;;
42018;SDS011;27703;51.980;5.848;2023-05-07T11:25:11;9.00;;;7.93;;
42018;SDS011;27703;51.980;5.848;2023-05-07T11:27:44;8.05;;;7.28;;
42018;SDS011;27703;51.980;5.848;2023-05-07T11:30:10;9.13;;;8.32;;
42018;SDS011;27703;51.980;5.848;2023-05-07T11:32:41;7.35;;;6.75;;
42018;SDS011;27703;51.980;5.848;2023-05-07T11:35:07;7.95;;;7.25;;
42018;SDS011;27703;51.980;5.848;2023-05-07T11:37:33;8.02;;;6.82;;
42018;SDS011;27703;51.980;5.848;2023-05-07T11:40:05;6.07;;;5.57;;
42018;SDS011;27703;51.980;5.848;2023-05-07T11:42:33;8.13;;;6.50;;
42018;SDS011;27703;51.980;5.848;2023-05-07T11:45:00;6.35;;;5.75;;
42018;SDS011;27703;51.980;5.848;2023-05-07T11:47:26;6.55;;;5.95;;
42018;SDS011;27703;51.980;5.848;2023-05-07T11:49:55;7.97;;;6.97;;
42018;SDS011;27703;51.980;5.848;2023-05-07T11:52:22;6.70;;;6.07;;
42018;SDS011;27703;51.980;5.848;2023-05-07T11:54:55;6.90;;;6.20;;
42018;SDS011;27703;51.980;5.848;2023-05-07T11:57:22;8.15;;;6.45;;
42018;SDS011;27703;51.980;5.848;2023-05-07T11:59:52;7.13;;;6.43;;
42018;SDS011;27703;51.980;5.848;2023-05-07T12:02:28;6.43;;;5.93;;
42018;SDS011;27703;51.980;5.848;2023-05-07T12:04:54;6.10;;;5.60;;
42018;SDS011;27703;51.980;5.848;2023-05-07T12:07:20;7.43;;;6.72;;
42018;SDS011;27703;51.980;5.848;2023-05-07T12:09:46;6.13;;;5.63;;
42018;SDS011;27703;51.980;5.848;2023-05-07T12:12:12;6.45;;;5.95;;
42018;SDS011;27703;51.980;5.848;2023-05-07T12:14:42;7.28;;;6.57;;
42018;SDS011;27703;51.980;5.848;2023-05-07T12:17:09;6.45;;;5.90;;
42018;SDS011;27703;51.980;5.848;2023-05-07T12:19:36;8.23;;;7.10;;
42018;SDS011;27703;51.980;5.848;2023-05-07T12:22:03;6.97;;;6.32;;
42018;SDS011;27703;51.980;5.848;2023-05-07T12:24:42;6.78;;;5.90;;
42018;SDS011;27703;51.980;5.848;2023-05-07T12:27:07;5.85;;;5.25;;
42018;SDS011;27703;51.980;5.848;2023-05-07T12:29:34;5.15;;;4.53;;
42018;SDS011;27703;51.980;5.848;2023-05-07T12:31:59;5.95;;;4.95;;
42018;SDS011;27703;51.980;5.848;2023-05-07T12:34:25;4.93;;;4.43;;
42018;SDS011;27703;51.980;5.848;2023-05-07T12:36:51;5.28;;;4.88;;
42018;SDS011;27703;51.980;5.848;2023-05-07T12:39:16;6.85;;;6.25;;
42018;SDS011;27703;51.980;5.848;2023-05-07T12:42:00;5.57;;;5.07;;
42018;SDS011;27703;51.980;5.848;2023-05-07T12:44:29;5.22;;;4.57;;
42018;SDS011;27703;51.980;5.848;2023-05-07T12:46:56;5.37;;;4.43;;
42018;SDS011;27703;51.980;5.848;2023-05-07T12:49:25;4.97;;;4.57;;
42018;SDS011;27703;51.980;5.848;2023-05-07T12:51:51;4.72;;;4.32;;
42018;SDS011;27703;51.980;5.848;2023-05-07T12:59:43;4.30;;;3.65;;
42018;SDS011;27703;51.980;5.848;2023-05-07T13:02:09;4.30;;;3.85;;
42018;SDS011;27703;51.980;5.848;2023-05-07T13:04:35;6.28;;;4.95;;
42018;SDS011;27703;51.980;5.848;2023-05-07T13:07:00;5.82;;;4.47;;
42018;SDS011;27703;51.980;5.848;2023-05-07T13:09:27;6.22;;;4.80;;
42018;SDS011;27703;51.980;5.848;2023-05-07T13:11:54;4.95;;;4.00;;
42018;SDS011;27703;51.980;5.848;2023-05-07T13:14:19;6.10;;;5.50;;
42018;SDS011;27703;51.980;5.848;2023-05-07T13:16:45;5.93;;;5.32;;
42018;SDS011;27703;51.980;5.848;2023-05-07T13:19:11;4.35;;;3.95;;
42018;SDS011;27703;51.980;5.848;2023-05-07T13:21:37;3.83;;;3.47;;
42018;SDS011;27703;51.980;5.848;2023-05-07T13:24:03;4.47;;;3.60;;
42018;SDS011;27703;51.980;5.848;2023-05-07T13:26:29;5.07;;;4.00;;
42018;SDS011;27703;51.980;5.848;2023-05-07T13:28:56;3.90;;;3.60;;
42018;SDS011;27703;51.980;5.848;2023-05-07T13:31:21;4.22;;;3.45;;
42018;SDS011;27703;51.980;5.848;2023-05-07T13:33:47;3.67;;;3.28;;
42018;SDS011;27703;51.980;5.848;2023-05-07T13:36:13;4.90;;;4.50;;
42018;SDS011;27703;51.980;5.848;2023-05-07T13:38:39;3.15;;;2.85;;
42018;SDS011;27703;51.980;5.848;2023-05-07T13:41:05;4.20;;;3.80;;
42018;SDS011;27703;51.980;5.848;2023-05-07T13:43:30;4.50;;;3.40;;
42018;SDS011;27703;51.980;5.848;2023-05-07T13:45:58;4.32;;;3.35;;
42018;SDS011;27703;51.980;5.848;2023-05-07T13:48:24;5.25;;;3.78;;
42018;SDS011;27703;51.980;5.848;2023-05-07T13:50:49;6.15;;;4.40;;
42018;SDS011;27703;51.980;5.848;2023-05-07T13:53:15;6.22;;;4.25;;
42018;SDS011;27703;51.980;5.848;2023-05-07T13:55:43;3.72;;;3.30;;
42018;SDS011;27703;51.980;5.848;2023-05-07T13:58:09;4.20;;;3.10;;
42018;SDS011;27703;51.980;5.848;2023-05-07T14:00:34;4.07;;;3.13;;
42018;SDS011;27703;51.980;5.848;2023-05-07T14:03:00;3.28;;;2.97;;
42018;SDS011;27703;51.980;5.848;2023-05-07T14:05:26;3.65;;;2.92;;
42018;SDS011;27703;51.980;5.848;2023-05-07T14:07:53;4.72;;;3.13;;
42018;SDS011;27703;51.980;5.848;2023-05-07T14:10:24;3.70;;;3.03;;
42018;SDS011;27703;51.980;5.848;2023-05-07T14:12:50;5.18;;;3.20;;
42018;SDS011;27703;51.980;5.848;2023-05-07T14:15:17;4.32;;;3.53;;
42018;SDS011;27703;51.980;5.848;2023-05-07T14:17:43;5.63;;;3.17;;
42018;SDS011;27703;51.980;5.848;2023-05-07T14:20:09;3.10;;;2.80;;
42018;SDS011;27703;51.980;5.848;2023-05-07T14:22:35;4.18;;;3.75;;
42018;SDS011;27703;51.980;5.848;2023-05-07T14:25:01;4.25;;;3.85;;
42018;SDS011;27703;51.980;5.848;2023-05-07T14:27:26;4.40;;;3.00;;
42018;SDS011;27703;51.980;5.848;2023-05-07T14:29:52;3.78;;;2.70;;
42018;SDS011;27703;51.980;5.848;2023-05-07T14:32:17;3.10;;;2.70;;
42018;SDS011;27703;51.980;5.848;2023-05-07T14:34:43;2.75;;;2.17;;
42018;SDS011;27703;51.980;5.848;2023-05-07T14:37:09;3.03;;;1.83;;
42018;SDS011;27703;51.980;5.848;2023-05-07T14:39:35;3.65;;;2.47;;
42018;SDS011;27703;51.980;5.848;2023-05-07T14:42:00;3.28;;;2.47;;
42018;SDS011;27703;51.980;5.848;2023-05-07T14:44:26;3.40;;;2.55;;
42018;SDS011;27703;51.980;5.848;2023-05-07T14:46:52;3.53;;;2.83;;
42018;SDS011;27703;51.980;5.848;2023-05-07T14:49:17;3.72;;;2.92;;
42018;SDS011;27703;51.980;5.848;2023-05-07T14:51:43;2.53;;;2.17;;
42018;SDS011;27703;51.980;5.848;2023-05-07T14:54:10;3.85;;;2.40;;
42018;SDS011;27703;51.980;5.848;2023-05-07T14:56:36;2.67;;;2.42;;
42018;SDS011;27703;51.980;5.848;2023-05-07T14:59:02;4.65;;;3.15;;
42018;SDS011;27703;51.980;5.848;2023-05-07T15:01:28;3.55;;;3.25;;
42018;SDS011;27703;51.980;5.848;2023-05-07T15:03:54;4.63;;;3.67;;
42018;SDS011;27703;51.980;5.848;2023-05-07T15:06:20;4.03;;;2.10;;
42018;SDS011;27703;51.980;5.848;2023-05-07T15:08:46;5.13;;;3.13;;
42018;SDS011;27703;51.980;5.848;2023-05-07T15:11:13;3.47;;;3.08;;
42018;SDS011;27703;51.980;5.848;2023-05-07T15:13:39;3.45;;;2.85;;